Cat Bi International Airport
VVCI : now visible

Airfield :











YOU CAN JOIN US ON...

 
LOGIN :

Register | Disclaimer

   EN    FR    IT 

 









Legend :    VFR   Marginal VFR   IFR   Intensive IFR   Very Intensive IFR
Visi :
Ceiling :
>= 8 km
>= 3000ft
5 to 8 km
1000 to 3000 ft
1500m to 5 km
500 to 1000 ft
800 to 1500m
200 to 500 ft
< 800m
< 200 ft
Symbols :   Thunderstorms  Fog  Heavy snow  Heavy precipitations  Wind > 20 kt






- Airport Elevation : 6 ft
- IATA code : HPH


VVCI - Cat Bi International

CURRENT METAR :
  • 012130Z VRB02KT 2000 BR SCT013 20/20 Q1012 NOSIG

EXPIRED METARs :
  • 012100Z VRB02KT 3400 BR BKN007 20/20 Q1011 NOSIG
  • 012030Z VRB02KT 3200 BR BKN007 20/20 Q1011 NOSIG
  • 012000Z VRB02KT 3000 BR BKN007 20/20 Q1011 NOSIG
  • 011930Z 36005KT 3600 BR SCT007 20/20 Q1011 NOSIG
  • 011900Z 01005KT 3800 BR SCT007 20/20 Q1011 NOSIG
  • 011830Z 05004KT 020V080 2800 BR BKN007 20/20 Q1011 NOSIG

TAF TAF VVCI
Valid from the 01 at 12:00 until the 02 at 12:00 UTC


011100Z 0112/0212 10007KT 7000 SCT015 BKN030
TEMPO 0118/0202 1400 DZ BR BKN004 OVC015



MET'MAP, your aeronautical weather chart ! - Copyright ORBIFLY December 2007 - Disclaimer

ORBIFLY MET'MAP TEAM :

Programming & Development : Alexandra Zaïnal
Concept & original design : Baudouin d'Aumeries
Assistance for programming : Marc-Olivier Méhu
Technical & hardware support : Manuel Goepfert

Contact : metmap@orbifly.com




SOURCES & CREDITS :

   NOAA       Earth
Advisory